Time;durP1;ratioP1;P1;durP2;ratioP2;P2;SDS_P1;SDS_P2;PMS_P1;PMS_P2;Temp;Humidity;BMP_temperature;BMP_pressure;BME280_temperature;BME280_humidity;BME280_pressure;Samples;Min_cycle;Max_cycle;Signal;HPM_P1;HPM_P2
2024/01/07 00:01:26;;;;;;;27.08;13.98;;;;;;;;;;4964262;29;20031;-59
2024/01/07 00:03:52;;;;;;;34.23;15.27;;;;;;;;;;4965313;29;20066;-57
2024/01/07 00:06:17;;;;;;;27.07;13.60;;;;;;;;;;4969729;29;20296;-56
2024/01/07 00:08:43;;;;;;;26.93;14.83;;;;;;;;;;4962009;29;20091;-58
2024/01/07 00:11:08;;;;;;;29.10;14.10;;;;;;;;;;4964476;29;20294;-52
2024/01/07 00:13:34;;;;;;;28.92;14.18;;;;;;;;;;4957777;29;20028;-56
2024/01/07 00:15:59;;;;;;;29.07;14.13;;;;;;;;;;4962371;29;20075;-54
2024/01/07 00:18:26;;;;;;;34.97;14.55;;;;;;;;;;4959461;29;20027;-53
2024/01/07 00:20:52;;;;;;;25.10;12.90;;;;;;;;;;4970054;29;20031;-59
2024/01/07 00:23:17;;;;;;;24.13;12.73;;;;;;;;;;4962277;29;20122;-58
2024/01/07 00:25:43;;;;;;;28.92;13.55;;;;;;;;;;4958453;29;20031;-56
2024/01/07 00:28:08;;;;;;;31.03;13.73;;;;;;;;;;4963645;29;20061;-53
2024/01/07 00:30:35;;;;;;;31.73;14.10;;;;;;;;;;4975019;29;20080;-57
2024/01/07 00:33:00;;;;;;;29.40;14.27;;;;;;;;;;4958321;29;20054;-57
2024/01/07 00:35:26;;;;;;;30.90;15.35;;;;;;;;;;4940558;29;20487;-56
2024/01/07 00:37:51;;;;;;;29.77;13.70;;;;;;;;;;4944142;29;20032;-57
2024/01/07 00:40:17;;;;;;;35.27;16.00;;;;;;;;;;4949211;29;20035;-56
2024/01/07 00:42:42;;;;;;;29.80;14.47;;;;;;;;;;4956800;29;20322;-57
2024/01/07 00:45:08;;;;;;;31.20;14.83;;;;;;;;;;4939447;29;20032;-58
2024/01/07 00:47:34;;;;;;;32.30;14.55;;;;;;;;;;4966883;29;20341;-57
2024/01/07 00:49:59;;;;;;;31.17;14.03;;;;;;;;;;4946341;29;20041;-55
2024/01/07 00:52:26;;;;;;;;;;;;;;;;;;4962579;29;20099;-58
2024/01/07 00:54:51;;;;;;;34.40;14.93;;;;;;;;;;4962593;29;19914;-53
2024/01/07 00:57:17;;;;;;;36.63;14.82;;;;;;;;;;4945719;29;20038;-55
2024/01/07 00:59:42;;;;;;;38.27;15.53;;;;;;;;;;4944702;29;20100;-57
2024/01/07 01:02:07;;;;;;;35.07;15.43;;;;;;;;;;4960210;29;20032;-57
2024/01/07 01:04:33;;;;;;;33.70;16.67;;;;;;;;;;4958255;29;20034;-56
2024/01/07 01:06:58;;;;;;;30.23;14.30;;;;;;;;;;4946102;29;20060;-56
2024/01/07 01:09:24;;;;;;;34.40;16.02;;;;;;;;;;4958760;29;20036;-56
2024/01/07 01:11:49;;;;;;;32.05;15.35;;;;;;;;;;4963120;29;20141;-55
2024/01/07 01:14:15;;;;;;;31.60;14.60;;;;;;;;;;4940026;29;20043;-55
2024/01/07 01:16:40;;;;;;;30.50;14.83;;;;;;;;;;4956523;29;20370;-54
2024/01/07 01:19:05;;;;;;;34.83;14.20;;;;;;;;;;4956153;29;20031;-58
2024/01/07 01:21:31;;;;;;;32.58;13.57;;;;;;;;;;4935469;29;20104;-58
2024/01/07 01:23:57;;;;;;;26.48;13.20;;;;;;;;;;4955964;29;20043;-58
2024/01/07 01:26:23;;;;;;;25.67;13.75;;;;;;;;;;4934767;29;20044;-59
2024/01/07 01:28:48;;;;;;;33.40;14.40;;;;;;;;;;4967061;29;20058;-57
2024/01/07 01:31:14;;;;;;;31.60;14.83;;;;;;;;;;4962401;29;20039;-56
2024/01/07 01:33:40;;;;;;;29.50;14.05;;;;;;;;;;4956791;29;20262;-57
2024/01/07 01:36:06;;;;;;;33.27;15.07;;;;;;;;;;4939860;29;20059;-57
2024/01/07 01:38:31;;;;;;;33.80;15.38;;;;;;;;;;4957297;29;20026;-57
2024/01/07 01:40:57;;;;;;;39.47;16.87;;;;;;;;;;4958635;29;20033;-57
2024/01/07 01:43:26;;;;;;;36.53;16.90;;;;;;;;;;4956492;29;20047;-58
2024/01/07 01:45:52;;;;;;;39.13;17.40;;;;;;;;;;4939290;29;20063;-55
2024/01/07 01:48:18;;;;;;;42.15;19.33;;;;;;;;;;4956625;29;20039;-57
2024/01/07 01:50:44;;;;;;;45.58;18.52;;;;;;;;;;4944378;29;20062;-56
2024/01/07 01:53:09;;;;;;;42.33;18.27;;;;;;;;;;4948346;29;20043;-56
2024/01/07 01:55:35;;;;;;;38.28;18.95;;;;;;;;;;4957879;29;20036;-56
2024/01/07 01:58:03;;;;;;;41.97;18.00;;;;;;;;;;4939562;29;20039;-56
2024/01/07 02:00:29;;;;;;;42.90;18.15;;;;;;;;;;4934595;29;20032;-54
2024/01/07 02:02:54;;;;;;;39.70;17.65;;;;;;;;;;4955927;29;20058;-58
2024/01/07 02:05:21;;;;;;;;;;;;;;;;;;4960247;29;20023;-58
2024/01/07 02:07:47;;;;;;;56.50;20.80;;;;;;;;;;4956211;29;19918;-58
2024/01/07 02:10:12;;;;;;;42.25;18.40;;;;;;;;;;4957829;29;20035;-56
2024/01/07 02:12:38;;;;;;;46.65;19.23;;;;;;;;;;4946155;29;20032;-56
2024/01/07 02:15:04;;;;;;;42.65;19.05;;;;;;;;;;4948522;29;20103;-56
2024/01/07 02:17:31;;;;;;;42.42;19.42;;;;;;;;;;4939101;29;20028;-55
2024/01/07 02:19:56;;;;;;;43.20;19.45;;;;;;;;;;4936794;29;20028;-56
2024/01/07 02:22:21;;;;;;;42.90;19.30;;;;;;;;;;4959735;29;20559;-57
2024/01/07 02:24:46;;;;;;;41.97;19.13;;;;;;;;;;4954885;29;20044;-57
2024/01/07 02:27:12;;;;;;;43.55;16.88;;;;;;;;;;4958640;29;20034;-57
2024/01/07 02:29:37;;;;;;;45.30;19.40;;;;;;;;;;4968389;28;20087;-57
2024/01/07 02:32:03;;;;;;;37.55;17.98;;;;;;;;;;4963195;29;20725;-58
2024/01/07 02:34:29;;;;;;;39.15;17.98;;;;;;;;;;4945423;29;20031;-57
2024/01/07 02:36:55;;;;;;;38.37;17.80;;;;;;;;;;4968421;29;20096;-57
2024/01/07 02:39:20;;;;;;;37.77;18.10;;;;;;;;;;4967007;29;20257;-58
2024/01/07 02:41:46;;;;;;;44.47;19.50;;;;;;;;;;4959721;29;20059;-55
2024/01/07 02:44:11;;;;;;;38.80;18.80;;;;;;;;;;4943035;29;20035;-56
2024/01/07 02:46:37;;;;;;;43.92;19.63;;;;;;;;;;4950425;29;20039;-56
2024/01/07 02:49:02;;;;;;;43.97;18.20;;;;;;;;;;4960226;29;20059;-57
2024/01/07 02:51:28;;;;;;;43.37;19.10;;;;;;;;;;4962562;29;20054;-55
2024/01/07 02:53:53;;;;;;;31.08;14.38;;;;;;;;;;4963667;29;20039;-59
2024/01/07 02:56:19;;;;;;;37.58;16.67;;;;;;;;;;4944919;29;20078;-57
2024/01/07 02:58:44;;;;;;;38.47;17.27;;;;;;;;;;4966656;29;20040;-57
2024/01/07 03:01:10;;;;;;;34.90;15.83;;;;;;;;;;4963495;29;20095;-56
2024/01/07 03:03:35;;;;;;;34.50;16.43;;;;;;;;;;4970199;29;20063;-58
2024/01/07 03:06:00;;;;;;;36.63;17.07;;;;;;;;;;4962167;29;20039;-58
2024/01/07 03:08:26;;;;;;;37.90;17.50;;;;;;;;;;4959286;29;20121;-57
2024/01/07 03:10:52;;;;;;;38.83;18.85;;;;;;;;;;4961211;29;20054;-60
2024/01/07 03:13:17;;;;;;;38.20;16.17;;;;;;;;;;4959290;29;20047;-58
2024/01/07 03:15:43;;;;;;;41.15;18.90;;;;;;;;;;4944040;29;20027;-57
2024/01/07 03:18:09;;;;;;;36.37;16.63;;;;;;;;;;4966255;29;20046;-55
2024/01/07 03:20:34;;;;;;;43.77;20.40;;;;;;;;;;4966889;29;20032;-53
2024/01/07 03:23:02;;;;;;;31.93;16.37;;;;;;;;;;4963415;29;20039;-57
2024/01/07 03:25:28;;;;;;;41.15;19.20;;;;;;;;;;4959182;29;20031;-56
2024/01/07 03:27:53;;;;;;;39.37;17.83;;;;;;;;;;4966803;29;20043;-59
2024/01/07 03:30:20;;;;;;;41.60;17.67;;;;;;;;;;4966339;29;20063;-58
2024/01/07 03:32:45;;;;;;;38.00;16.27;;;;;;;;;;4960203;29;20263;-58
2024/01/07 03:35:11;;;;;;;43.87;18.43;;;;;;;;;;4958680;29;20047;-58
2024/01/07 03:37:36;;;;;;;44.13;19.83;;;;;;;;;;4963358;29;20064;-58
2024/01/07 03:40:02;;;;;;;34.92;15.55;;;;;;;;;;4964838;29;20027;-57
2024/01/07 03:42:27;;;;;;;38.47;18.40;;;;;;;;;;4958009;29;20067;-58
2024/01/07 03:44:53;;;;;;;42.97;19.33;;;;;;;;;;4961867;29;20301;-59
2024/01/07 03:47:18;;;;;;;39.55;19.38;;;;;;;;;;4962052;29;20035;-58
2024/01/07 03:49:44;;;;;;;33.93;15.43;;;;;;;;;;4962476;29;20063;-58
2024/01/07 03:52:09;;;;;;;39.17;18.83;;;;;;;;;;4958624;29;20298;-58
2024/01/07 03:54:35;;;;;;;37.43;17.93;;;;;;;;;;4958509;29;20046;-55
2024/01/07 03:57:00;;;;;;;42.40;18.47;;;;;;;;;;4958378;29;20039;-56
2024/01/07 03:59:26;;;;;;;41.27;19.07;;;;;;;;;;4959781;29;20028;-58
2024/01/07 04:01:56;;;;;;;42.25;19.55;;;;;;;;;;4958397;29;20027;-59
2024/01/07 04:04:21;;;;;;;47.25;20.77;;;;;;;;;;4958273;29;20036;-59
2024/01/07 04:06:47;;;;;;;48.40;19.73;;;;;;;;;;4958025;29;20038;-57
2024/01/07 04:09:12;;;;;;;48.57;20.33;;;;;;;;;;4958316;29;20262;-57
2024/01/07 04:11:41;;;;;;;54.47;21.63;;;;;;;;;;4958126;29;20035;-57
2024/01/07 04:14:07;;;;;;;45.47;20.20;;;;;;;;;;4958218;29;20124;-54
2024/01/07 04:16:33;;;;;;;39.92;18.20;;;;;;;;;;4958089;29;20032;-57
2024/01/07 04:18:58;;;;;;;50.40;19.20;;;;;;;;;;4959717;29;20042;-55
2024/01/07 04:21:24;;;;;;;41.33;17.52;;;;;;;;;;4968445;29;20028;-58
2024/01/07 04:23:50;;;;;;;39.88;16.30;;;;;;;;;;4959737;29;20035;-58
2024/01/07 04:26:15;;;;;;;40.20;16.67;;;;;;;;;;4960052;29;20031;-55
2024/01/07 04:28:41;;;;;;;37.30;16.00;;;;;;;;;;4959444;29;20266;-57
2024/01/07 04:31:07;;;;;;;32.70;16.05;;;;;;;;;;4963990;29;20035;-54
2024/01/07 04:33:32;;;;;;;38.00;14.75;;;;;;;;;;4957838;29;20050;-58
2024/01/07 04:35:59;;;;;;;27.53;14.20;;;;;;;;;;4956165;29;20054;-57
2024/01/07 04:38:24;;;;;;;33.33;13.98;;;;;;;;;;4957112;29;20071;-54
2024/01/07 04:40:50;;;;;;;32.53;15.43;;;;;;;;;;4962931;29;20039;-56
2024/01/07 04:43:16;;;;;;;32.03;14.93;;;;;;;;;;4959014;29;20064;-56
2024/01/07 04:45:41;;;;;;;34.70;15.03;;;;;;;;;;4957600;29;20091;-58
2024/01/07 04:48:07;;;;;;;36.63;16.15;;;;;;;;;;4964865;29;20063;-57
2024/01/07 04:50:32;;;;;;;30.95;14.35;;;;;;;;;;4960050;29;20051;-57
2024/01/07 04:52:58;;;;;;;36.27;14.93;;;;;;;;;;4965479;28;20042;-58
2024/01/07 04:55:23;;;;;;;33.65;16.02;;;;;;;;;;4957445;29;20046;-56
2024/01/07 04:57:49;;;;;;;35.07;16.40;;;;;;;;;;4960922;29;20031;-57
2024/01/07 05:00:15;;;;;;;34.70;16.33;;;;;;;;;;4967390;29;20268;-56
2024/01/07 05:02:41;;;;;;;39.20;17.75;;;;;;;;;;4964238;29;20032;-56
2024/01/07 05:05:07;;;;;;;37.10;17.40;;;;;;;;;;4957281;29;20038;-57
2024/01/07 05:07:33;;;;;;;33.03;15.05;;;;;;;;;;4957037;29;20036;-56
2024/01/07 05:09:58;;;;;;;30.97;15.23;;;;;;;;;;4964179;29;20039;-57
2024/01/07 05:12:25;;;;;;;33.45;14.48;;;;;;;;;;4962116;29;20026;-58
2024/01/07 05:14:51;;;;;;;36.55;16.30;;;;;;;;;;4957134;29;20039;-56
2024/01/07 05:17:16;;;;;;;35.97;17.43;;;;;;;;;;4953879;29;20028;-59
2024/01/07 05:19:41;;;;;;;35.87;16.47;;;;;;;;;;4961609;29;20262;-58
2024/01/07 05:22:07;;;;;;;42.55;18.42;;;;;;;;;;4959900;29;20035;-56
2024/01/07 05:24:32;;;;;;;42.00;17.83;;;;;;;;;;4957234;29;20064;-59
2024/01/07 05:26:58;;;;;;;43.03;17.40;;;;;;;;;;4960014;29;20266;-57
2024/01/07 05:29:23;;;;;;;30.93;14.93;;;;;;;;;;4963577;29;20038;-57
2024/01/07 05:31:49;;;;;;;34.33;16.07;;;;;;;;;;4959493;29;20296;-56
2024/01/07 05:34:14;;;;;;;32.70;17.63;;;;;;;;;;4958386;29;20262;-58
2024/01/07 05:36:40;;;;;;;26.00;11.97;;;;;;;;;;4960342;29;20051;-57
2024/01/07 05:39:06;;;;;;;27.80;15.60;;;;;;;;;;4969782;29;20270;-57
2024/01/07 05:41:32;;;;;;;28.98;12.60;;;;;;;;;;4960214;29;20106;-60
2024/01/07 05:43:57;;;;;;;33.58;16.38;;;;;;;;;;4957822;29;20023;-57
2024/01/07 05:46:23;;;;;;;38.57;16.43;;;;;;;;;;4956913;29;20035;-57
2024/01/07 05:48:48;;;;;;;35.17;16.00;;;;;;;;;;4956631;29;20035;-55
2024/01/07 05:51:14;;;;;;;23.58;12.23;;;;;;;;;;4959976;29;20095;-58
2024/01/07 05:53:40;;;;;;;25.90;13.60;;;;;;;;;;4968212;29;20059;-56
2024/01/07 05:56:07;;;;;;;28.48;14.85;;;;;;;;;;4956971;29;20060;-57
2024/01/07 05:58:33;;;;;;;28.92;15.48;;;;;;;;;;4956902;29;20028;-56
2024/01/07 06:00:58;;;;;;;38.57;16.43;;;;;;;;;;4965140;29;20087;-57
2024/01/07 06:03:23;;;;;;;30.40;15.00;;;;;;;;;;4966687;29;20028;-57
2024/01/07 06:05:49;;;;;;;28.60;14.65;;;;;;;;;;4959869;29;20447;-57
2024/01/07 06:08:14;;;;;;;29.13;14.97;;;;;;;;;;4962554;29;20032;-58
2024/01/07 06:10:40;;;;;;;26.87;13.43;;;;;;;;;;4969710;29;20042;-55
2024/01/07 06:13:06;;;;;;;27.07;12.83;;;;;;;;;;4961127;29;20359;-55
2024/01/07 06:15:31;;;;;;;28.58;14.73;;;;;;;;;;4960271;29;20043;-57
2024/01/07 06:17:57;;;;;;;27.17;13.67;;;;;;;;;;4967376;29;20047;-57
2024/01/07 06:20:23;;;;;;;25.57;13.77;;;;;;;;;;4965861;29;20301;-59
2024/01/07 06:22:48;;;;;;;23.50;13.18;;;;;;;;;;4970624;29;20094;-57
2024/01/07 06:25:14;;;;;;;25.77;14.50;;;;;;;;;;4963540;29;20032;-57
2024/01/07 06:27:39;;;;;;;27.60;12.80;;;;;;;;;;4960546;29;20035;-57
2024/01/07 06:30:05;;;;;;;23.97;12.33;;;;;;;;;;4968884;29;20100;-57
2024/01/07 06:32:32;;;;;;;20.57;10.13;;;;;;;;;;4960334;29;20094;-58
2024/01/07 06:35:01;;;;;;;23.02;12.57;;;;;;;;;;4960024;29;20289;-58
2024/01/07 06:37:28;;;;;;;23.52;12.73;;;;;;;;;;4970781;29;20031;-57
2024/01/07 06:39:54;;;;;;;23.98;13.52;;;;;;;;;;4967246;29;20056;-58
2024/01/07 06:42:20;;;;;;;22.67;13.07;;;;;;;;;;4971196;29;20039;-56
2024/01/07 06:44:45;;;;;;;20.37;11.20;;;;;;;;;;4962312;29;20035;-58
2024/01/07 06:47:10;;;;;;;25.13;13.40;;;;;;;;;;4963953;29;20094;-59
2024/01/07 06:49:36;;;;;;;29.17;13.83;;;;;;;;;;4962091;29;20031;-57
2024/01/07 06:52:01;;;;;;;26.17;12.70;;;;;;;;;;4967547;29;20028;-57
2024/01/07 06:54:26;;;;;;;23.00;11.93;;;;;;;;;;4959741;29;20036;-58
2024/01/07 06:56:52;;;;;;;25.50;11.37;;;;;;;;;;4959655;29;20353;-58
2024/01/07 06:59:17;;;;;;;22.07;12.03;;;;;;;;;;4959366;29;20031;-58
2024/01/07 07:01:42;;;;;;;22.67;11.90;;;;;;;;;;4960012;29;20056;-56
2024/01/07 07:04:08;;;;;;;21.67;10.98;;;;;;;;;;4969429;29;20020;-55
2024/01/07 07:06:34;;;;;;;21.70;11.53;;;;;;;;;;4959653;29;20047;-59
2024/01/07 07:08:59;;;;;;;19.85;10.93;;;;;;;;;;4969007;29;20087;-55
2024/01/07 07:11:25;;;;;;;26.70;12.35;;;;;;;;;;4967399;29;20064;-54
2024/01/07 07:13:50;;;;;;;22.35;11.82;;;;;;;;;;4959256;29;20056;-58
2024/01/07 07:16:16;;;;;;;22.60;11.70;;;;;;;;;;4958169;29;20075;-54
2024/01/07 07:18:42;;;;;;;24.60;12.80;;;;;;;;;;4959152;29;20266;-57
2024/01/07 07:21:07;;;;;;;22.20;11.50;;;;;;;;;;4965058;29;20035;-53
2024/01/07 07:23:33;;;;;;;23.60;12.43;;;;;;;;;;4968181;29;20036;-56
2024/01/07 07:25:58;;;;;;;21.73;11.43;;;;;;;;;;4958982;29;20358;-55
2024/01/07 07:28:24;;;;;;;24.52;11.80;;;;;;;;;;4965976;29;20035;-59
2024/01/07 07:30:49;;;;;;;24.77;11.97;;;;;;;;;;4945001;29;20063;-58
2024/01/07 07:33:15;;;;;;;22.17;10.93;;;;;;;;;;4949874;29;20277;-55
2024/01/07 07:35:41;;;;;;;22.00;12.60;;;;;;;;;;4958914;29;20040;-57
2024/01/07 07:38:07;;;;;;;25.23;13.13;;;;;;;;;;4948008;29;20034;-59
2024/01/07 07:40:33;;;;;;;18.67;10.33;;;;;;;;;;4967547;29;20036;-56
2024/01/07 07:42:58;;;;;;;22.60;11.37;;;;;;;;;;4966555;29;20355;-57
2024/01/07 07:45:24;;;;;;;16.92;9.85;;;;;;;;;;4958555;29;20028;-57
2024/01/07 07:47:49;;;;;;;21.73;11.50;;;;;;;;;;4958613;29;20063;-58
2024/01/07 07:50:14;;;;;;;30.07;12.27;;;;;;;;;;4958158;29;20346;-55
2024/01/07 07:52:43;;;;;;;21.48;11.68;;;;;;;;;;4961116;29;20043;-58
2024/01/07 07:55:09;;;;;;;17.63;10.50;;;;;;;;;;4958280;29;20032;-57
2024/01/07 07:57:35;;;;;;;20.25;10.45;;;;;;;;;;4958525;29;20026;-55
2024/01/07 08:00:00;;;;;;;22.70;11.20;;;;;;;;;;4968790;29;20035;-59
2024/01/07 08:02:25;;;;;;;24.13;12.87;;;;;;;;;;4951441;29;20889;-56
2024/01/07 08:04:51;;;;;;;20.10;12.10;;;;;;;;;;4958341;29;20270;-56
2024/01/07 08:07:16;;;;;;;21.63;11.73;;;;;;;;;;4960310;29;20028;-55
2024/01/07 08:09:42;;;;;;;23.40;11.80;;;;;;;;;;4962948;29;20087;-55
2024/01/07 08:12:07;;;;;;;23.38;12.35;;;;;;;;;;4962678;29;20032;-58
2024/01/07 08:14:33;;;;;;;22.40;11.57;;;;;;;;;;4967389;29;20028;-57
2024/01/07 08:16:59;;;;;;;24.63;12.40;;;;;;;;;;4958420;29;20286;-58
2024/01/07 08:19:24;;;;;;;22.00;11.35;;;;;;;;;;4961967;29;20062;-57
2024/01/07 08:21:50;;;;;;;21.33;11.67;;;;;;;;;;4964325;29;20035;-58
2024/01/07 08:24:15;;;;;;;24.23;12.17;;;;;;;;;;4965828;29;20274;-58
2024/01/07 08:26:41;;;;;;;25.10;11.75;;;;;;;;;;4962296;29;20043;-59
2024/01/07 08:29:06;;;;;;;25.73;12.70;;;;;;;;;;4959971;29;20059;-55
2024/01/07 08:31:31;;;;;;;19.57;11.23;;;;;;;;;;4958468;29;20035;-57
2024/01/07 08:33:57;;;;;;;21.93;11.73;;;;;;;;;;4958720;29;20067;-56
2024/01/07 08:36:23;;;;;;;25.67;12.97;;;;;;;;;;4957502;29;20099;-58
2024/01/07 08:38:49;;;;;;;22.60;11.85;;;;;;;;;;4959971;29;20254;-58
2024/01/07 08:41:17;;;;;;;23.98;12.63;;;;;;;;;;4956974;29;20039;-58
2024/01/07 08:43:43;;;;;;;20.63;11.50;;;;;;;;;;4966567;29;20040;-57
2024/01/07 08:46:09;;;;;;;22.73;12.07;;;;;;;;;;4962168;29;20035;-59
2024/01/07 08:48:34;;;;;;;22.80;12.40;;;;;;;;;;4958744;29;20042;-56
2024/01/07 08:51:00;;;;;;;18.83;9.43;;;;;;;;;;4957352;29;20056;-59
2024/01/07 08:53:25;;;;;;;19.10;8.88;;;;;;;;;;4967203;29;20050;-58
2024/01/07 08:55:51;;;;;;;14.68;8.32;;;;;;;;;;4959461;29;20039;-57
2024/01/07 08:58:17;;;;;;;14.27;9.17;;;;;;;;;;4957532;29;20056;-57
2024/01/07 09:00:43;;;;;;;18.50;10.10;;;;;;;;;;4962519;29;20024;-56
2024/01/07 09:03:09;;;;;;;14.65;8.73;;;;;;;;;;4964700;29;20027;-55
2024/01/07 09:05:34;;;;;;;15.40;8.98;;;;;;;;;;4957024;29;20095;-58
2024/01/07 09:08:00;;;;;;;10.27;7.23;;;;;;;;;;4949077;29;20040;-56
2024/01/07 09:10:26;;;;;;;15.30;8.67;;;;;;;;;;4955544;29;20071;-57
2024/01/07 09:12:53;;;;;;;11.55;6.53;;;;;;;;;;4957109;29;20043;-59
2024/01/07 09:15:19;;;;;;;16.95;9.02;;;;;;;;;;4959668;29;20035;-58
2024/01/07 09:17:45;;;;;;;12.95;7.93;;;;;;;;;;4957077;29;20019;-57
2024/01/07 09:20:10;;;;;;;19.73;9.87;;;;;;;;;;4956586;29;20050;-56
2024/01/07 09:22:36;;;;;;;15.00;9.53;;;;;;;;;;4971989;29;20035;-57
2024/01/07 09:25:05;;;;;;;18.58;10.82;;;;;;;;;;4966807;29;20038;-57
2024/01/07 09:27:30;;;;;;;15.25;8.50;;;;;;;;;;4946001;29;20046;-58
2024/01/07 09:29:56;;;;;;;15.87;8.80;;;;;;;;;;4956848;29;20047;-58
2024/01/07 09:32:22;;;;;;;16.00;9.00;;;;;;;;;;4962407;29;20309;-58
2024/01/07 09:34:47;;;;;;;16.27;9.00;;;;;;;;;;4964675;29;20032;-58
2024/01/07 09:37:13;;;;;;;18.85;10.18;;;;;;;;;;4956648;29;20091;-56
2024/01/07 09:39:42;;;;;;;17.15;8.35;;;;;;;;;;4958298;29;20040;-57
2024/01/07 09:42:16;;;;;;;16.15;8.70;;;;;;;;;;4966994;29;20107;-57
2024/01/07 09:44:42;;;;;;;18.33;9.27;;;;;;;;;;4966179;29;20036;-58
2024/01/07 09:47:10;;;;;;;14.10;7.77;;;;;;;;;;4962157;29;20031;-55
2024/01/07 09:49:36;;;;;;;14.50;7.78;;;;;;;;;;4960768;29;20272;-58
2024/01/07 09:52:03;;;;;;;18.60;10.00;;;;;;;;;;4960963;29;20031;-59
2024/01/07 09:54:29;;;;;;;17.13;9.40;;;;;;;;;;4961135;29;20351;-55
2024/01/07 09:56:58;;;;;;;13.93;8.77;;;;;;;;;;4962429;29;20044;-57
2024/01/07 09:59:26;;;;;;;17.27;8.20;;;;;;;;;;4960644;29;20058;-56
2024/01/07 10:01:52;;;;;;;14.27;8.55;;;;;;;;;;4959998;29;20034;-57
2024/01/07 10:04:17;;;;;;;17.48;8.60;;;;;;;;;;4969901;29;20032;-55
2024/01/07 10:06:43;;;;;;;17.27;7.73;;;;;;;;;;4963969;29;20068;-58
2024/01/07 10:09:08;;;;;;;18.23;9.60;;;;;;;;;;4950430;29;20076;-55
2024/01/07 10:11:34;;;;;;;16.77;8.17;;;;;;;;;;4965905;29;20035;-56
2024/01/07 10:13:59;;;;;;;16.30;8.50;;;;;;;;;;4965169;29;20270;-54
2024/01/07 10:16:25;;;;;;;16.88;8.70;;;;;;;;;;4960040;29;20395;-59
2024/01/07 10:18:50;;;;;;;16.53;8.70;;;;;;;;;;4959833;29;20038;-54
2024/01/07 10:21:16;;;;;;;15.90;8.77;;;;;;;;;;4959883;29;20060;-57
2024/01/07 10:23:42;;;;;;;18.37;7.93;;;;;;;;;;4967215;29;20036;-58
2024/01/07 10:26:07;;;;;;;18.33;8.73;;;;;;;;;;4974619;29;20266;-57
2024/01/07 10:28:33;;;;;;;16.40;8.37;;;;;;;;;;4962806;29;20060;-57
2024/01/07 10:30:58;;;;;;;15.17;8.63;;;;;;;;;;4959754;29;20031;-59
2024/01/07 10:33:24;;;;;;;12.40;6.97;;;;;;;;;;4959501;29;20036;-57
2024/01/07 10:36:00;;;;;;;13.97;7.33;;;;;;;;;;4964374;29;20046;-58
2024/01/07 10:38:26;;;;;;;19.08;8.73;;;;;;;;;;4944618;29;20062;-58
2024/01/07 10:40:52;;;;;;;19.10;10.23;;;;;;;;;;4963818;29;20032;-58
2024/01/07 10:43:18;;;;;;;17.42;8.43;;;;;;;;;;4961291;29;20270;-59
2024/01/07 10:45:47;;;;;;;18.42;7.45;;;;;;;;;;4962066;29;20042;-56
2024/01/07 10:48:16;;;;;;;14.15;8.70;;;;;;;;;;4960746;29;20034;-59
2024/01/07 10:50:43;;;;;;;13.68;7.15;;;;;;;;;;4956871;29;20046;-57
2024/01/07 10:53:11;;;;;;;13.00;7.28;;;;;;;;;;4960064;29;20040;-59
2024/01/07 10:55:38;;;;;;;15.40;7.40;;;;;;;;;;4959450;29;20059;-59
2024/01/07 10:58:04;;;;;;;15.38;7.50;;;;;;;;;;4951735;29;20048;-58
2024/01/07 11:00:31;;;;;;;13.20;7.43;;;;;;;;;;4959096;29;20043;-56
2024/01/07 11:02:56;;;;;;;11.38;6.20;;;;;;;;;;4950196;29;20285;-57
2024/01/07 11:05:36;;;;;;;15.27;7.60;;;;;;;;;;4959347;29;20039;-57
2024/01/07 11:08:04;;;;;;;10.30;5.85;;;;;;;;;;4967210;29;20321;-58
2024/01/07 11:10:48;;;;;;;8.35;5.05;;;;;;;;;;4959017;29;20032;-57
2024/01/07 11:13:34;;;;;;;14.65;6.93;;;;;;;;;;4958705;29;20036;-58
2024/01/07 11:15:59;;;;;;;11.80;6.30;;;;;;;;;;4951443;29;20071;-59
2024/01/07 11:18:29;;;;;;;10.38;5.82;;;;;;;;;;4958989;29;20036;-58
2024/01/07 11:20:58;;;;;;;8.65;4.13;;;;;;;;;;4958887;29;20036;-56
2024/01/07 11:23:42;;;;;;;15.55;5.05;;;;;;;;;;4958733;29;20042;-56
2024/01/07 11:26:11;;;;;;;9.48;5.28;;;;;;;;;;4950826;29;20031;-55
2024/01/07 11:28:43;;;;;;;7.43;4.20;;;;;;;;;;4962309;29;20031;-58
2024/01/07 11:31:09;;;;;;;8.65;4.75;;;;;;;;;;4958686;29;20031;-59
2024/01/07 11:33:38;;;;;;;8.38;4.15;;;;;;;;;;4962054;29;20031;-58
2024/01/07 11:36:07;;;;;;;11.07;4.68;;;;;;;;;;4976109;29;20039;-57
2024/01/07 11:38:33;;;;;;;7.28;4.32;;;;;;;;;;4954284;29;20062;-58
2024/01/07 11:41:00;;;;;;;8.93;4.57;;;;;;;;;;4942008;29;20530;-57
2024/01/07 11:43:25;;;;;;;7.65;5.13;;;;;;;;;;4959386;29;20035;-58
2024/01/07 11:45:51;;;;;;;7.37;3.97;;;;;;;;;;4966411;29;20070;-57
2024/01/07 11:48:17;;;;;;;5.82;4.38;;;;;;;;;;4960230;29;20031;-58
2024/01/07 11:50:43;;;;;;;6.95;4.82;;;;;;;;;;4958387;29;20056;-58
2024/01/07 11:53:08;;;;;;;8.83;5.17;;;;;;;;;;4958488;29;20039;-59
2024/01/07 11:55:36;;;;;;;8.68;4.20;;;;;;;;;;4961972;29;20084;-55
2024/01/07 11:58:02;;;;;;;7.10;4.03;;;;;;;;;;4960597;29;20036;-57
2024/01/07 12:00:30;;;;;;;7.75;4.88;;;;;;;;;;4958154;29;20028;-56
2024/01/07 12:02:56;;;;;;;8.68;5.05;;;;;;;;;;4940842;29;20028;-58
2024/01/07 12:05:21;;;;;;;6.70;3.50;;;;;;;;;;4964130;29;20054;-58
2024/01/07 12:07:46;;;;;;;7.03;4.20;;;;;;;;;;4961290;29;20051;-59
2024/01/07 12:10:12;;;;;;;6.17;3.77;;;;;;;;;;4958122;29;20177;-58
2024/01/07 12:12:41;;;;;;;8.70;4.47;;;;;;;;;;4958041;29;20046;-59
2024/01/07 12:15:07;;;;;;;6.90;3.50;;;;;;;;;;4966335;29;20074;-58
2024/01/07 12:17:33;;;;;;;;;;;;;;;;;;4965098;29;20051;-56
2024/01/07 12:19:59;;;;;;;5.17;2.97;;;;;;;;;;4958666;29;19911;-58
2024/01/07 12:22:26;;;;;;;5.93;2.97;;;;;;;;;;4961050;29;20035;-58
2024/01/07 12:25:05;;;;;;;4.70;2.50;;;;;;;;;;4960551;29;20042;-58
2024/01/07 12:27:30;;;;;;;6.33;2.70;;;;;;;;;;4957822;29;20273;-54
2024/01/07 12:29:56;;;;;;;9.90;2.43;;;;;;;;;;4962425;29;20266;-57
2024/01/07 12:32:21;;;;;;;3.75;2.42;;;;;;;;;;4957903;29;20028;-58
2024/01/07 12:34:47;;;;;;;6.97;2.80;;;;;;;;;;4970559;29;20031;-59
2024/01/07 12:37:13;;;;;;;4.47;2.30;;;;;;;;;;4954690;29;20031;-60
2024/01/07 12:39:38;;;;;;;3.30;2.13;;;;;;;;;;4961418;29;20034;-56
2024/01/07 12:42:03;;;;;;;3.43;2.10;;;;;;;;;;4941129;29;20027;-60
2024/01/07 12:44:29;;;;;;;4.70;2.10;;;;;;;;;;4957375;29;20032;-60
2024/01/07 12:46:54;;;;;;;5.57;2.00;;;;;;;;;;4973688;29;20042;-59
2024/01/07 12:49:21;;;;;;;5.03;2.42;;;;;;;;;;4957485;29;20043;-59
2024/01/07 12:51:47;;;;;;;3.00;1.60;;;;;;;;;;4957466;29;20043;-59
2024/01/07 12:54:12;;;;;;;3.85;1.70;;;;;;;;;;4961199;29;20055;-59
2024/01/07 12:56:38;;;;;;;3.03;1.33;;;;;;;;;;4966664;29;20043;-60
2024/01/07 12:59:03;;;;;;;3.08;1.63;;;;;;;;;;4960615;29;20027;-56
2024/01/07 13:01:30;;;;;;;3.75;1.85;;;;;;;;;;4956404;29;20050;-58
2024/01/07 13:03:56;;;;;;;2.97;1.80;;;;;;;;;;4956850;29;20087;-59
2024/01/07 13:06:21;;;;;;;6.20;2.20;;;;;;;;;;4968908;29;20039;-58
2024/01/07 13:08:47;;;;;;;3.15;1.55;;;;;;;;;;4967052;29;20039;-56
2024/01/07 13:11:15;;;;;;;6.13;1.75;;;;;;;;;;4957058;29;20031;-55
2024/01/07 13:13:40;;;;;;;4.13;1.60;;;;;;;;;;4957047;29;20062;-58
2024/01/07 13:16:05;;;;;;;2.97;1.70;;;;;;;;;;4961468;29;20039;-58
2024/01/07 13:18:31;;;;;;;6.57;2.03;;;;;;;;;;4961906;29;20031;-58
2024/01/07 13:20:57;;;;;;;6.25;2.63;;;;;;;;;;4951634;29;20091;-59
2024/01/07 13:23:22;;;;;;;2.67;1.73;;;;;;;;;;4956875;29;20072;-59
2024/01/07 13:25:47;;;;;;;4.57;1.47;;;;;;;;;;4945280;29;20088;-58
2024/01/07 13:28:13;;;;;;;2.83;1.70;;;;;;;;;;4961890;29;20038;-58
2024/01/07 13:30:40;;;;;;;3.08;1.83;;;;;;;;;;4956821;29;20044;-59
2024/01/07 13:33:05;;;;;;;3.50;1.50;;;;;;;;;;4956278;29;20027;-58
2024/01/07 13:35:31;;;;;;;4.30;1.58;;;;;;;;;;4957607;29;20059;-57
2024/01/07 13:37:57;;;;;;;4.88;2.28;;;;;;;;;;4944504;29;20032;-57
2024/01/07 13:40:22;;;;;;;4.25;2.05;;;;;;;;;;4957166;29;20047;-59
2024/01/07 13:42:50;;;;;;;3.13;1.75;;;;;;;;;;4956922;29;20024;-58
2024/01/07 13:45:19;;;;;;;3.50;2.10;;;;;;;;;;4960764;29;20035;-55
2024/01/07 13:47:46;;;;;;;5.27;1.90;;;;;;;;;;4960898;29;20043;-58
2024/01/07 13:50:12;;;;;;;3.03;1.70;;;;;;;;;;4956638;29;20269;-55
2024/01/07 13:52:38;;;;;;;8.27;2.27;;;;;;;;;;4956644;29;20285;-57
2024/01/07 13:55:03;;;;;;;3.22;1.83;;;;;;;;;;4940629;29;20095;-57
2024/01/07 13:57:30;;;;;;;5.32;2.03;;;;;;;;;;4957796;29;20114;-57
2024/01/07 13:59:56;;;;;;;2.67;1.48;;;;;;;;;;4950614;29;20043;-57
2024/01/07 14:02:22;;;;;;;4.63;2.23;;;;;;;;;;4958027;29;20091;-58
2024/01/07 14:04:48;;;;;;;3.67;2.05;;;;;;;;;;4956542;29;20031;-59
2024/01/07 14:07:14;;;;;;;4.68;2.30;;;;;;;;;;4965355;29;20027;-58
2024/01/07 14:09:40;;;;;;;3.55;1.90;;;;;;;;;;4961494;29;20043;-57
2024/01/07 14:12:05;;;;;;;3.90;2.10;;;;;;;;;;4956589;29;20036;-58
2024/01/07 14:14:31;;;;;;;;;;;;;;;;;;4956891;29;20062;-59
2024/01/07 14:16:57;;;;;;;3.13;1.80;;;;;;;;;;4957104;29;19919;-58
2024/01/07 14:19:23;;;;;;;4.13;1.73;;;;;;;;;;4958937;29;20055;-59